createdAt,value
2023-05-12T00:01:02.444Z,77.70
2023-05-12T00:03:32.264Z,77.98
2023-05-12T00:06:04.699Z,78.06
2023-05-12T00:08:32.224Z,77.92
2023-05-12T00:11:02.528Z,77.88
2023-05-12T00:13:32.105Z,78.47
2023-05-12T00:16:00.395Z,77.34
2023-05-12T00:18:28.862Z,77.64
2023-05-12T00:20:58.312Z,75.88
2023-05-12T00:23:27.450Z,76.69
2023-05-12T00:25:57.187Z,77.82
2023-05-12T00:28:27.096Z,75.90
2023-05-12T00:31:05.516Z,77.07
2023-05-12T00:33:33.392Z,77.96
2023-05-12T00:36:04.301Z,77.73
2023-05-12T00:38:34.481Z,77.80
2023-05-12T00:41:04.564Z,78.44
2023-05-12T00:43:33.819Z,79.40
2023-05-12T00:46:06.469Z,79.53
2023-05-12T00:48:36.682Z,79.79
2023-05-12T00:51:06.664Z,79.08
2023-05-12T00:53:48.349Z,80.16
2023-05-12T00:56:20.419Z,81.04
2023-05-12T00:58:48.265Z,80.93
2023-05-12T01:01:17.143Z,81.71
2023-05-12T01:03:47.141Z,82.25
2023-05-12T01:06:33.179Z,82.35
2023-05-12T01:09:04.185Z,82.96
2023-05-12T01:11:34.355Z,83.16
2023-05-12T01:14:04.645Z,83.05
2023-05-12T01:16:54.448Z,83.40
2023-05-12T01:19:46.265Z,82.28
2023-05-12T01:22:18.871Z,83.08
2023-05-12T01:25:10.181Z,83.44
2023-05-12T01:27:42.202Z,83.60
2023-05-12T01:30:19.433Z,81.57
2023-05-12T01:32:51.967Z,81.33
2023-05-12T01:35:22.206Z,81.19
2023-05-12T01:37:52.296Z,81.26
2023-05-12T01:40:22.782Z,81.55
2023-05-12T01:42:53.240Z,81.19
2023-05-12T01:45:23.384Z,80.92
2023-05-12T01:47:53.571Z,82.31
2023-05-12T01:50:23.697Z,80.60
2023-05-12T01:52:53.779Z,79.82
2023-05-12T01:55:23.897Z,79.98
2023-05-12T01:57:53.984Z,79.02
2023-05-12T02:00:24.344Z,79.58
2023-05-12T02:02:54.593Z,80.33
2023-05-12T02:05:24.825Z,81.05
2023-05-12T02:07:55.069Z,80.66
2023-05-12T02:10:25.170Z,80.03
2023-05-12T02:12:55.464Z,80.99
2023-05-12T02:15:25.760Z,79.37
2023-05-12T02:17:55.911Z,80.70
2023-05-12T02:20:24.480Z,80.20
2023-05-12T02:22:52.970Z,81.86
2023-05-12T02:25:21.521Z,81.50
2023-05-12T02:27:49.824Z,82.28
2023-05-12T02:30:18.546Z,82.57
2023-05-12T02:32:47.231Z,83.55
2023-05-12T02:35:15.552Z,83.58
2023-05-12T02:37:43.655Z,84.32
2023-05-12T02:40:12.889Z,84.87
2023-05-12T02:42:40.638Z,84.56
2023-05-12T02:45:10.524Z,85.30
2023-05-12T02:47:40.750Z,85.35
2023-05-12T02:50:09.794Z,86.21
2023-05-12T02:52:37.581Z,86.42
2023-05-12T02:55:06.259Z,86.58
2023-05-12T02:57:34.797Z,87.75
2023-05-12T03:00:07.015Z,87.62
2023-05-12T03:02:40.367Z,87.90
2023-05-12T03:05:10.652Z,88.19
2023-05-12T03:07:40.854Z,88.71
2023-05-12T03:10:11.238Z,89.53
2023-05-12T03:12:42.111Z,91.04
2023-05-12T03:15:12.448Z,90.91
2023-05-12T03:17:42.862Z,91.64
2023-05-12T03:20:13.181Z,92.05
2023-05-12T03:22:43.658Z,92.74
2023-05-12T03:25:15.990Z,93.57
2023-05-12T03:27:46.766Z,93.85
2023-05-12T03:30:17.090Z,93.91
2023-05-12T03:32:47.780Z,94.45
2023-05-12T03:35:18.380Z,95.11
2023-05-12T03:37:48.460Z,95.00
2023-05-12T03:40:19.140Z,95.93
2023-05-12T03:42:49.472Z,95.79
2023-05-12T03:45:19.790Z,97.14
2023-05-12T03:47:48.207Z,97.14
2023-05-12T03:50:16.595Z,97.20
2023-05-12T03:52:45.110Z,96.91
2023-05-12T03:55:13.712Z,97.13
2023-05-12T03:57:41.906Z,97.58
2023-05-12T04:00:11.785Z,97.75
2023-05-12T04:02:41.874Z,98.13
2023-05-12T04:05:10.634Z,98.15
2023-05-12T04:07:38.802Z,98.22
2023-05-12T04:10:08.615Z,98.41
2023-05-12T04:12:38.856Z,97.97
2023-05-12T04:15:10.092Z,98.31
2023-05-12T04:17:40.722Z,97.36
2023-05-12T04:20:11.259Z,98.39
2023-05-12T04:22:41.456Z,98.24
2023-05-12T04:25:11.638Z,98.67
2023-05-12T04:27:42.014Z,99.16
2023-05-12T04:30:12.450Z,98.94
2023-05-12T04:32:42.568Z,98.89
2023-05-12T04:35:12.720Z,98.84
2023-05-12T04:37:43.095Z,99.22
2023-05-12T04:40:13.538Z,98.89
2023-05-12T04:42:43.669Z,98.37
2023-05-12T04:45:13.867Z,99.29
2023-05-12T04:47:44.070Z,98.70
2023-05-12T04:50:14.684Z,97.91
2023-05-12T04:52:44.891Z,97.30
2023-05-12T04:55:15.114Z,97.50
2023-05-12T04:57:43.439Z,97.74
2023-05-12T05:00:13.054Z,97.64
2023-05-12T05:02:41.513Z,94.16
2023-05-12T05:05:12.174Z,95.22
2023-05-12T05:07:40.139Z,93.89
2023-05-12T05:10:09.449Z,95.52
2023-05-12T05:12:37.152Z,91.48
2023-05-12T05:15:06.496Z,91.05
2023-05-12T05:17:34.088Z,89.68
2023-05-12T05:22:30.660Z,89.28
2023-05-12T05:24:59.225Z,86.57
2023-05-12T05:27:27.638Z,86.33
2023-05-12T05:29:58.077Z,86.61
2023-05-12T05:32:28.344Z,84.95
2023-05-12T05:34:58.585Z,82.83
2023-05-12T05:37:29.368Z,81.88
2023-05-12T05:39:59.632Z,80.23
2023-05-12T05:42:30.143Z,80.56
2023-05-12T05:47:32.248Z,79.27
2023-05-12T05:50:02.609Z,78.72
2023-05-12T05:52:32.994Z,75.51
2023-05-12T05:55:03.348Z,74.72
2023-05-12T05:57:33.652Z,72.15
2023-05-12T06:00:06.962Z,74.45
2023-05-12T06:02:38.118Z,72.21
2023-05-12T06:05:09.269Z,67.64
2023-05-12T06:07:39.474Z,67.97
2023-05-12T06:10:09.751Z,68.48
2023-05-12T06:12:41.308Z,66.36
2023-05-12T06:15:12.010Z,66.49
2023-05-12T06:17:42.394Z,66.39
2023-05-12T06:20:13.619Z,65.10
2023-05-12T06:22:44.494Z,63.12
2023-05-12T06:25:14.913Z,61.84
2023-05-12T06:27:43.045Z,61.66
2023-05-12T06:30:15.602Z,66.72
2023-05-12T06:32:46.230Z,59.89
2023-05-12T06:35:16.946Z,59.97
2023-05-12T06:37:50.946Z,60.34
2023-05-12T06:40:21.755Z,61.32
2023-05-12T06:42:51.859Z,57.39
2023-05-12T06:45:23.687Z,57.88
2023-05-12T06:47:53.986Z,61.09
2023-05-12T06:50:24.125Z,58.70
2023-05-12T06:52:54.260Z,55.91
2023-05-12T06:55:24.629Z,55.83
2023-05-12T06:57:56.259Z,53.67
2023-05-12T07:00:27.012Z,55.09
2023-05-12T07:02:57.591Z,52.27
2023-05-12T07:05:27.915Z,54.60
2023-05-12T07:07:58.076Z,52.80
2023-05-12T07:10:28.238Z,55.41
2023-05-12T07:12:58.582Z,55.75
2023-05-12T07:15:30.582Z,51.27
2023-05-12T07:18:02.199Z,51.90
2023-05-12T07:20:32.448Z,52.38
2023-05-12T07:23:00.958Z,51.34
2023-05-12T07:25:30.159Z,50.09
2023-05-12T07:27:57.797Z,49.52
2023-05-12T07:30:26.354Z,50.70
2023-05-12T07:32:54.676Z,50.44
2023-05-12T07:35:23.197Z,47.70
2023-05-12T07:37:51.582Z,52.25
2023-05-12T07:40:20.170Z,48.16
2023-05-12T07:42:48.764Z,47.08
2023-05-12T07:45:23.078Z,50.57
2023-05-12T07:47:53.457Z,48.34
2023-05-12T07:50:23.689Z,46.23
2023-05-12T07:52:54.451Z,48.47
2023-05-12T07:55:25.853Z,46.04
2023-05-12T07:57:56.317Z,45.36
2023-05-12T08:00:26.627Z,43.07
2023-05-12T08:02:57.106Z,43.88
2023-05-12T08:05:27.604Z,43.76
2023-05-12T08:07:57.688Z,43.76
2023-05-12T08:10:30.040Z,41.42
2023-05-12T08:13:00.186Z,42.25
2023-05-12T08:15:30.310Z,44.63
2023-05-12T08:17:58.742Z,42.08
2023-05-12T08:20:27.200Z,44.22
2023-05-12T08:22:55.618Z,41.21
2023-05-12T08:25:24.097Z,40.93
2023-05-12T08:27:52.394Z,38.99
2023-05-12T08:30:21.158Z,41.48
2023-05-12T08:32:49.395Z,37.06
2023-05-12T08:35:18.144Z,36.18
2023-05-12T08:37:46.873Z,35.74
2023-05-12T08:40:23.258Z,36.83
2023-05-12T08:43:46.471Z,36.58
2023-05-12T08:46:17.633Z,37.60
2023-05-12T08:48:54.012Z,37.91
2023-05-12T08:51:28.289Z,36.57
2023-05-12T08:53:59.152Z,35.84
2023-05-12T08:59:07.121Z,35.07
2023-05-12T09:01:42.971Z,34.53
2023-05-12T09:04:13.600Z,34.02
2023-05-12T09:06:45.373Z,36.13
2023-05-12T09:09:17.090Z,36.99
2023-05-12T09:11:52.030Z,32.61
2023-05-12T09:14:26.127Z,32.75
2023-05-12T09:17:07.300Z,32.77
2023-05-12T09:19:35.307Z,30.04
2023-05-12T09:22:05.896Z,30.29
2023-05-12T09:24:41.149Z,31.05
2023-05-12T09:27:10.967Z,31.09
2023-05-12T09:29:59.303Z,31.62
2023-05-12T09:32:35.992Z,32.15
2023-05-12T09:35:11.431Z,32.52
2023-05-12T09:37:40.656Z,32.44
2023-05-12T09:40:11.863Z,33.14
2023-05-12T09:42:43.727Z,32.36
2023-05-12T09:45:15.721Z,32.24
2023-05-12T09:47:45.632Z,32.76
2023-05-12T09:50:15.787Z,32.35
2023-05-12T09:52:45.465Z,34.71
2023-05-12T09:55:15.441Z,33.05
2023-05-12T09:57:47.023Z,31.99
2023-05-12T10:00:34.423Z,32.82
2023-05-12T10:03:15.458Z,34.21
2023-05-12T10:06:02.720Z,31.45
2023-05-12T10:08:48.682Z,32.24
2023-05-12T10:11:17.841Z,33.19
2023-05-12T10:13:49.318Z,33.80
2023-05-12T10:16:21.881Z,33.66
2023-05-12T10:18:54.077Z,35.43
2023-05-12T10:21:26.330Z,36.40
2023-05-12T10:23:57.974Z,34.05
2023-05-12T10:26:28.567Z,35.59
2023-05-12T10:29:00.239Z,34.13
2023-05-12T10:31:31.244Z,34.87
2023-05-12T10:34:02.056Z,38.19
2023-05-12T10:36:32.278Z,34.88
2023-05-12T10:39:06.556Z,35.88
2023-05-12T10:41:36.645Z,34.52
2023-05-12T10:44:06.834Z,36.73
2023-05-12T10:46:40.156Z,36.84
2023-05-12T10:49:13.165Z,35.11
2023-05-12T10:51:44.004Z,35.61
2023-05-12T10:54:25.125Z,35.93
2023-05-12T10:57:00.620Z,35.85
2023-05-12T10:59:32.227Z,35.47
2023-05-12T11:02:07.246Z,36.33
2023-05-12T11:04:58.147Z,36.68
2023-05-12T11:07:33.104Z,35.42
2023-05-12T11:10:06.044Z,34.41
2023-05-12T11:12:37.552Z,34.90
2023-05-12T11:15:07.503Z,34.81
2023-05-12T11:17:41.296Z,34.16
2023-05-12T11:20:23.992Z,34.95
2023-05-12T11:22:55.142Z,33.93
2023-05-12T11:25:28.503Z,34.60
2023-05-12T11:27:57.103Z,33.61
2023-05-12T11:30:25.054Z,33.07
2023-05-12T11:33:04.224Z,32.92
2023-05-12T11:35:34.540Z,34.84
2023-05-12T11:38:19.434Z,32.27
2023-05-12T11:40:48.068Z,32.41
2023-05-12T11:43:22.694Z,32.95
2023-05-12T11:45:52.906Z,32.76
2023-05-12T11:48:35.474Z,31.77
2023-05-12T11:51:04.311Z,32.92
2023-05-12T11:53:41.391Z,34.56
2023-05-12T11:56:22.084Z,31.68
2023-05-12T11:58:58.798Z,31.88
2023-05-12T12:01:27.645Z,32.08
2023-05-12T12:03:57.835Z,31.22
2023-05-12T12:06:26.819Z,33.77
2023-05-12T12:09:00.253Z,33.74
2023-05-12T12:11:30.963Z,31.80
2023-05-12T12:14:01.617Z,31.86
2023-05-12T12:16:32.916Z,33.11
2023-05-12T12:19:02.642Z,31.87
2023-05-12T12:21:31.184Z,32.68
2023-05-12T12:23:59.484Z,31.50
2023-05-12T12:26:27.844Z,31.21
2023-05-12T12:28:56.312Z,31.27
2023-05-12T12:31:24.826Z,33.10
2023-05-12T12:33:53.193Z,33.80
2023-05-12T12:36:21.952Z,32.03
2023-05-12T12:38:50.126Z,31.50
2023-05-12T12:41:18.497Z,32.82
2023-05-12T12:43:47.013Z,32.87
2023-05-12T12:46:15.402Z,31.18
2023-05-12T12:48:43.985Z,30.55
2023-05-12T12:51:12.824Z,33.54
2023-05-12T12:53:43.480Z,31.64
2023-05-12T12:56:12.868Z,33.54
2023-05-12T12:58:41.503Z,33.63
2023-05-12T13:01:09.760Z,32.76
2023-05-12T13:03:37.960Z,31.87
2023-05-12T13:06:07.178Z,33.27
2023-05-12T13:08:35.350Z,33.39
2023-05-12T13:11:03.952Z,31.43
2023-05-12T13:13:32.361Z,31.98
2023-05-12T13:16:01.125Z,32.27
2023-05-12T13:18:29.668Z,31.91
2023-05-12T13:20:58.483Z,32.89
2023-05-12T13:23:26.525Z,32.09
2023-05-12T13:25:54.918Z,34.12
2023-05-12T13:28:23.362Z,32.81
2023-05-12T13:30:55.287Z,32.18
2023-05-12T13:33:23.327Z,31.43
2023-05-12T13:35:51.751Z,30.05
2023-05-12T13:38:20.058Z,31.35
2023-05-12T13:40:48.836Z,32.33
2023-05-12T13:43:18.077Z,31.46
2023-05-12T13:45:45.605Z,31.01
2023-05-12T13:48:13.998Z,30.49
2023-05-12T13:50:42.562Z,32.09
2023-05-12T13:53:12.719Z,32.27
2023-05-12T13:55:42.234Z,31.77
2023-05-12T13:58:11.544Z,31.91
2023-05-12T14:00:41.508Z,30.64
2023-05-12T14:03:11.518Z,30.81
2023-05-12T14:05:41.747Z,33.57
2023-05-12T14:08:11.751Z,30.72
2023-05-12T14:10:41.431Z,30.93
2023-05-12T14:13:11.457Z,31.06
2023-05-12T14:15:48.763Z,30.50
2023-05-12T14:18:21.076Z,31.48
2023-05-12T14:20:52.007Z,29.08
2023-05-12T14:23:21.726Z,31.28
2023-05-12T14:25:51.779Z,30.52
2023-05-12T14:28:23.519Z,29.68
2023-05-12T14:30:53.786Z,29.67
2023-05-12T14:33:23.878Z,29.32
2023-05-12T14:36:06.005Z,28.94
2023-05-12T14:38:37.239Z,29.84
2023-05-12T14:41:08.595Z,31.16
2023-05-12T14:43:39.251Z,29.97
2023-05-12T14:46:08.754Z,30.92
2023-05-12T14:48:38.469Z,28.86
2023-05-12T14:51:07.069Z,29.90
2023-05-12T14:53:35.393Z,29.11
2023-05-12T14:56:03.914Z,31.06
2023-05-12T14:58:32.187Z,30.19
2023-05-12T15:01:02.788Z,29.82
2023-05-12T15:03:34.090Z,28.92
2023-05-12T15:06:07.135Z,29.98
2023-05-12T15:08:37.887Z,28.20
2023-05-12T15:11:08.089Z,28.88
2023-05-12T15:13:37.784Z,28.53
2023-05-12T15:16:08.378Z,29.33
2023-05-12T15:18:38.515Z,30.67
2023-05-12T15:21:08.564Z,28.48
2023-05-12T15:23:38.371Z,28.84
2023-05-12T15:26:27.114Z,28.55
2023-05-12T15:28:57.927Z,29.24
2023-05-12T15:31:30.442Z,31.23
2023-05-12T15:34:00.705Z,30.65
2023-05-12T15:36:31.125Z,29.94
2023-05-12T15:39:01.231Z,30.75
2023-05-12T15:41:31.146Z,29.20
2023-05-12T15:44:01.124Z,28.84
2023-05-12T15:46:31.811Z,30.85
2023-05-12T15:49:04.808Z,29.03
2023-05-12T15:51:33.988Z,28.99
2023-05-12T15:54:07.861Z,29.16
2023-05-12T15:56:37.626Z,29.36
2023-05-12T15:59:07.646Z,29.92
2023-05-12T16:01:35.824Z,28.89
2023-05-12T16:04:06.077Z,30.21
2023-05-12T16:06:35.745Z,30.23
2023-05-12T16:09:05.610Z,30.29
2023-05-12T16:16:11.841Z,29.93
2023-05-12T16:18:43.088Z,29.33
2023-05-12T16:21:13.902Z,30.03
2023-05-12T16:23:44.037Z,30.43
2023-05-12T16:26:14.226Z,30.47
2023-05-12T16:28:44.503Z,30.38
2023-05-12T16:31:18.127Z,31.60
2023-05-12T16:33:48.542Z,32.56
2023-05-12T16:36:19.790Z,33.09
2023-05-12T16:38:53.972Z,34.23
2023-05-12T16:41:21.936Z,33.16
2023-05-12T16:43:50.141Z,34.59
2023-05-12T16:46:18.642Z,34.25
2023-05-12T16:48:46.728Z,33.77
2023-05-12T16:51:15.202Z,34.89
2023-05-12T16:53:42.778Z,34.50
2023-05-12T16:56:10.592Z,34.81
2023-05-12T16:58:38.627Z,34.49
2023-05-12T17:01:07.157Z,35.11
2023-05-12T17:03:35.599Z,35.75
2023-05-12T17:06:04.242Z,34.84
2023-05-12T17:08:35.554Z,34.80
2023-05-12T17:11:06.012Z,34.67
2023-05-12T17:13:38.465Z,35.37
2023-05-12T17:16:08.777Z,35.42
2023-05-12T17:21:12.515Z,34.05
2023-05-12T17:23:42.663Z,33.30
2023-05-12T17:26:12.762Z,32.61
2023-05-12T17:28:42.928Z,34.37
2023-05-12T17:31:13.219Z,34.51
2023-05-12T17:33:43.367Z,34.25
2023-05-12T17:36:13.760Z,35.71
2023-05-12T17:38:43.975Z,37.41
2023-05-12T17:41:14.465Z,36.66
2023-05-12T17:43:44.688Z,36.74
2023-05-12T17:46:14.846Z,37.78
2023-05-12T17:48:44.961Z,38.25
2023-05-12T17:51:15.133Z,38.20
2023-05-12T17:53:46.373Z,38.66
2023-05-12T17:56:16.560Z,38.14
2023-05-12T17:58:45.014Z,38.63
2023-05-12T18:01:13.484Z,39.53
2023-05-12T18:03:42.374Z,38.98
2023-05-12T18:06:12.910Z,39.14
2023-05-12T18:08:41.539Z,39.11
2023-05-12T18:11:09.894Z,38.83
2023-05-12T18:13:38.373Z,38.50
2023-05-12T18:16:12.890Z,39.31
2023-05-12T18:18:51.614Z,39.95
2023-05-12T18:21:21.866Z,39.55
2023-05-12T18:23:52.166Z,39.86
2023-05-12T18:26:22.690Z,39.22
2023-05-12T18:28:53.086Z,40.85
2023-05-12T18:31:23.444Z,39.66
2023-05-12T18:33:51.685Z,40.85
2023-05-12T18:36:20.162Z,40.43
2023-05-12T18:38:48.450Z,40.90
2023-05-12T18:41:16.880Z,40.64
2023-05-12T18:43:46.170Z,41.19
2023-05-12T18:46:13.814Z,41.15
2023-05-12T18:48:42.116Z,41.87
2023-05-12T18:51:11.175Z,41.82
2023-05-12T18:53:39.005Z,41.46
2023-05-12T18:56:08.170Z,41.98
2023-05-12T18:58:35.577Z,42.92
2023-05-12T19:01:05.242Z,43.29
2023-05-12T19:03:37.356Z,44.62
2023-05-12T19:06:07.479Z,43.69
2023-05-12T19:08:37.771Z,43.86
2023-05-12T19:11:08.050Z,44.12
2023-05-12T19:13:42.526Z,45.03
2023-05-12T19:16:12.930Z,45.45
2023-05-12T19:18:43.235Z,45.62
2023-05-12T19:21:14.105Z,45.57
2023-05-12T19:23:44.533Z,45.59
2023-05-12T19:26:14.636Z,45.97
2023-05-12T19:28:45.193Z,46.30
2023-05-12T19:31:15.364Z,46.15
2023-05-12T19:33:45.790Z,46.53
2023-05-12T19:36:16.079Z,46.81
2023-05-12T19:38:46.321Z,46.72
2023-05-12T19:41:16.438Z,47.18
2023-05-12T19:43:46.591Z,47.56
2023-05-12T19:46:17.325Z,48.41
2023-05-12T19:48:47.630Z,48.15
2023-05-12T19:51:17.895Z,47.85
2023-05-12T19:53:48.148Z,47.94
2023-05-12T19:56:18.946Z,48.14
2023-05-12T19:58:49.144Z,47.96
2023-05-12T20:01:19.356Z,48.69
2023-05-12T20:03:49.691Z,49.58
2023-05-12T20:06:20.573Z,50.43
2023-05-12T20:08:51.203Z,50.82
2023-05-12T20:11:21.351Z,50.95
2023-05-12T20:13:51.504Z,50.33
2023-05-12T20:16:21.943Z,51.01
2023-05-12T20:18:52.757Z,50.51
2023-05-12T20:21:22.944Z,51.93
2023-05-12T20:23:53.394Z,52.30
2023-05-12T20:26:21.502Z,52.34
2023-05-12T20:28:51.417Z,52.45
2023-05-12T20:31:21.406Z,52.76
2023-05-12T20:33:49.963Z,52.60
2023-05-12T20:36:18.603Z,53.87
2023-05-12T20:38:46.689Z,53.16
2023-05-12T20:41:15.120Z,54.05
2023-05-12T20:43:45.986Z,53.86
2023-05-12T20:46:16.267Z,55.41
2023-05-12T20:48:46.564Z,55.91
2023-05-12T20:51:17.107Z,55.67
2023-05-12T20:53:47.261Z,56.37
2023-05-12T20:56:17.439Z,56.78
2023-05-12T20:58:47.517Z,57.67
2023-05-12T21:01:18.182Z,57.83
2023-05-12T21:03:48.428Z,58.58
2023-05-12T21:06:18.625Z,58.26
2023-05-12T21:08:48.804Z,58.62
2023-05-12T21:11:19.756Z,58.99
2023-05-12T21:13:50.049Z,59.76
2023-05-12T21:16:20.468Z,59.92
2023-05-12T21:18:51.041Z,60.67
2023-05-12T21:21:21.177Z,61.10
2023-05-12T21:23:51.355Z,61.55
2023-05-12T21:26:21.520Z,61.68
2023-05-12T21:28:51.875Z,62.47
2023-05-12T21:31:22.123Z,63.53
2023-05-12T21:33:52.456Z,63.12
2023-05-12T21:36:22.785Z,63.55
2023-05-12T21:38:53.388Z,63.99
2023-05-12T21:41:21.886Z,64.76
2023-05-12T21:43:49.880Z,64.88
2023-05-12T21:46:18.541Z,64.64
2023-05-12T21:48:47.265Z,64.50
2023-05-12T21:51:15.909Z,64.41
2023-05-12T21:53:44.059Z,64.55
2023-05-12T21:56:12.380Z,66.24
2023-05-12T21:58:40.990Z,64.75
2023-05-12T22:01:09.441Z,66.07
2023-05-12T22:03:37.912Z,66.74
2023-05-12T22:06:08.055Z,66.64
2023-05-12T22:08:38.692Z,65.64
2023-05-12T22:11:06.490Z,66.06
2023-05-12T22:13:35.055Z,67.06
2023-05-12T22:16:04.170Z,66.75
2023-05-12T22:18:32.114Z,67.77
2023-05-12T22:21:00.107Z,67.95
2023-05-12T22:23:28.450Z,68.46
2023-05-12T22:25:57.000Z,68.18
2023-05-12T22:28:25.680Z,67.61
2023-05-12T22:30:53.889Z,67.41
2023-05-12T22:33:22.525Z,68.11
2023-05-12T22:35:50.788Z,68.51
2023-05-12T22:38:19.171Z,68.18
2023-05-12T22:40:47.691Z,68.46
2023-05-12T22:43:17.777Z,68.42
2023-05-12T22:45:53.014Z,68.66
2023-05-12T22:48:23.514Z,68.66
2023-05-12T22:50:56.764Z,69.05
2023-05-12T22:53:26.968Z,69.67
2023-05-12T22:55:55.327Z,70.01
2023-05-12T22:58:23.742Z,70.48
2023-05-12T23:00:52.229Z,70.46
2023-05-12T23:03:20.689Z,71.04
2023-05-12T23:05:49.221Z,71.24
2023-05-12T23:08:17.422Z,70.96
2023-05-12T23:10:46.124Z,71.72
2023-05-12T23:13:14.324Z,71.98
2023-05-12T23:15:42.727Z,72.96
2023-05-12T23:18:11.212Z,73.09
2023-05-12T23:20:39.611Z,73.56
2023-05-12T23:23:08.043Z,73.65
2023-05-12T23:25:38.842Z,74.81
2023-05-12T23:28:08.019Z,73.56
2023-05-12T23:30:36.439Z,74.33
2023-05-12T23:33:04.951Z,75.46
2023-05-12T23:35:33.369Z,75.32
2023-05-12T23:38:01.611Z,75.59
2023-05-12T23:40:30.106Z,74.25
2023-05-12T23:42:58.415Z,74.88
2023-05-12T23:45:26.888Z,75.55
2023-05-12T23:47:55.246Z,76.12
2023-05-12T23:50:23.916Z,75.92
2023-05-12T23:52:56.763Z,76.60
2023-05-12T23:55:26.916Z,76.73
2023-05-12T23:57:57.542Z,77.39
